createdAt,value
2022-11-27T00:01:27.698Z,1.33
2022-11-27T00:03:55.798Z,1.19
2022-11-27T00:06:27.697Z,1.14
2022-11-27T00:08:57.762Z,1.25
2022-11-27T00:11:26.055Z,1.14
2022-11-27T00:13:52.982Z,1.20
2022-11-27T00:16:21.058Z,1.29
2022-11-27T00:18:48.338Z,1.17
2022-11-27T00:21:22.494Z,1.33
2022-11-27T00:23:49.963Z,1.21
2022-11-27T00:26:16.524Z,1.29
2022-11-27T00:28:43.092Z,1.20
2022-11-27T00:31:17.145Z,1.17
2022-11-27T00:33:44.169Z,1.22
2022-11-27T00:36:12.712Z,1.22
2022-11-27T00:38:39.503Z,1.39
2022-11-27T00:41:20.860Z,1.29
2022-11-27T00:43:47.869Z,1.28
2022-11-27T00:46:16.377Z,1.44
2022-11-27T00:48:43.515Z,1.42
2022-11-27T00:51:13.724Z,1.26
2022-11-27T00:53:40.514Z,1.36
2022-11-27T00:56:07.956Z,1.29
2022-11-27T00:58:34.879Z,1.23
2022-11-27T01:01:08.958Z,1.28
2022-11-27T01:03:35.821Z,1.09
2022-11-27T01:06:06.969Z,1.11
2022-11-27T01:08:34.685Z,1.11
2022-11-27T01:11:01.897Z,1.29
2022-11-27T01:13:31.557Z,1.26
2022-11-27T01:16:03.228Z,1.25
2022-11-27T01:18:30.094Z,1.11
2022-11-27T01:20:57.532Z,1.22
2022-11-27T01:23:24.543Z,1.16
2022-11-27T01:25:53.382Z,1.09
2022-11-27T01:28:21.874Z,1.32
2022-11-27T01:30:48.690Z,1.37
2022-11-27T01:33:18.729Z,1.30
2022-11-27T01:36:01.037Z,1.05
2022-11-27T01:38:29.269Z,1.28
2022-11-27T01:41:08.265Z,1.17
2022-11-27T01:43:50.905Z,1.16
2022-11-27T01:46:35.501Z,1.22
2022-11-27T01:49:09.455Z,1.11
2022-11-27T01:51:50.586Z,1.22
2022-11-27T01:54:19.139Z,1.20
2022-11-27T01:56:50.187Z,1.21
2022-11-27T01:59:18.141Z,1.26
2022-11-27T02:01:44.804Z,1.18
2022-11-27T02:04:11.854Z,1.10
2022-11-27T02:06:38.573Z,1.22
2022-11-27T02:09:05.149Z,1.35
2022-11-27T02:11:42.813Z,1.25
2022-11-27T02:14:38.035Z,1.23
2022-11-27T02:17:09.752Z,1.30
2022-11-27T02:19:54.219Z,1.37
2022-11-27T02:22:57.958Z,1.27
2022-11-27T02:25:39.794Z,1.40
2022-11-27T02:28:29.912Z,1.24
2022-11-27T02:31:29.167Z,1.27
2022-11-27T02:34:07.353Z,1.35
2022-11-27T02:36:35.473Z,1.31
2022-11-27T02:39:14.740Z,1.46
2022-11-27T02:41:53.244Z,1.50
2022-11-27T02:44:22.720Z,1.30
2022-11-27T02:46:52.654Z,1.35
2022-11-27T02:49:20.722Z,1.43
2022-11-27T02:51:57.107Z,1.33
2022-11-27T02:54:27.950Z,1.36
2022-11-27T02:56:57.367Z,1.30
2022-11-27T02:59:26.652Z,1.35
2022-11-27T03:02:01.383Z,1.38
2022-11-27T03:04:37.810Z,1.28
2022-11-27T03:07:14.780Z,1.26
2022-11-27T03:09:48.387Z,1.30
2022-11-27T03:12:16.220Z,1.30
2022-11-27T03:14:47.119Z,1.18
2022-11-27T03:17:31.978Z,1.31
2022-11-27T03:20:34.992Z,1.26
2022-11-27T03:23:01.581Z,1.34
2022-11-27T03:25:28.749Z,1.16
2022-11-27T03:28:08.164Z,1.33
2022-11-27T03:30:34.699Z,1.39
2022-11-27T03:33:02.167Z,1.48
2022-11-27T03:35:29.500Z,1.54
2022-11-27T03:37:56.808Z,1.63
2022-11-27T03:40:35.501Z,1.48
2022-11-27T03:43:09.843Z,1.38
2022-11-27T03:45:45.686Z,1.52
2022-11-27T03:48:21.073Z,1.56
2022-11-27T03:51:09.520Z,1.45
2022-11-27T03:54:00.915Z,1.53
2022-11-27T03:56:53.408Z,1.43
2022-11-27T03:59:26.264Z,1.44
2022-11-27T04:01:52.949Z,1.56
2022-11-27T04:04:19.640Z,1.49
2022-11-27T04:06:46.323Z,1.53
2022-11-27T04:09:12.863Z,1.58
2022-11-27T04:11:39.398Z,1.55
2022-11-27T04:14:06.091Z,1.67
2022-11-27T04:16:32.835Z,1.62
2022-11-27T04:18:59.432Z,1.54
2022-11-27T04:21:28.178Z,1.58
2022-11-27T04:23:54.680Z,1.68
2022-11-27T04:26:21.241Z,1.66
2022-11-27T04:28:48.017Z,1.75
2022-11-27T04:31:14.704Z,1.72
2022-11-27T04:33:43.704Z,1.72
2022-11-27T04:36:10.390Z,1.58
2022-11-27T04:38:36.979Z,1.74
2022-11-27T04:41:03.558Z,1.78
2022-11-27T04:43:30.091Z,1.74
2022-11-27T04:45:56.785Z,1.80
2022-11-27T04:48:23.347Z,1.74
2022-11-27T04:50:49.879Z,1.73
2022-11-27T04:53:16.353Z,1.72
2022-11-27T04:55:42.877Z,1.61
2022-11-27T04:58:09.393Z,1.67
2022-11-27T05:00:36.201Z,1.75
2022-11-27T05:03:02.784Z,1.71
2022-11-27T05:05:29.428Z,1.72
2022-11-27T05:07:58.289Z,1.72
2022-11-27T05:10:24.921Z,1.78
2022-11-27T05:12:51.463Z,1.73
2022-11-27T05:15:18.027Z,1.63
2022-11-27T05:17:44.603Z,1.73
2022-11-27T05:20:11.512Z,1.78
2022-11-27T05:22:38.154Z,1.75
2022-11-27T05:25:04.945Z,1.78
2022-11-27T05:27:31.540Z,1.79
2022-11-27T05:29:58.126Z,1.66
2022-11-27T05:32:25.075Z,1.71
2022-11-27T05:34:51.632Z,1.64
2022-11-27T05:37:20.005Z,1.67
2022-11-27T05:39:46.832Z,1.72
2022-11-27T05:42:13.394Z,1.75
2022-11-27T05:44:40.071Z,1.73
2022-11-27T05:47:07.012Z,1.67
2022-11-27T05:49:33.716Z,1.68
2022-11-27T05:52:00.221Z,1.57
2022-11-27T05:54:26.909Z,1.58
2022-11-27T05:56:53.451Z,1.69
2022-11-27T05:59:20.187Z,1.78
2022-11-27T06:01:49.471Z,1.79
2022-11-27T06:04:16.321Z,1.86
2022-11-27T06:06:42.811Z,1.83
2022-11-27T06:09:12.839Z,1.87
2022-11-27T06:11:40.567Z,1.98
2022-11-27T06:14:09.105Z,1.91
2022-11-27T06:16:36.386Z,1.95
2022-11-27T06:19:03.433Z,1.87
2022-11-27T06:21:29.976Z,1.89
2022-11-27T06:23:57.181Z,1.88
2022-11-27T06:26:29.375Z,1.89
2022-11-27T06:28:57.311Z,1.99
2022-11-27T06:31:28.631Z,1.90
2022-11-27T06:33:58.834Z,1.93
2022-11-27T06:36:32.500Z,2.18
2022-11-27T06:38:59.125Z,2.06
2022-11-27T06:41:27.196Z,2.08
2022-11-27T06:43:55.032Z,2.19
2022-11-27T06:46:23.472Z,2.19
2022-11-27T06:48:51.860Z,2.20
2022-11-27T06:51:26.780Z,2.20
2022-11-27T06:53:53.728Z,2.34
2022-11-27T06:56:23.880Z,2.08
2022-11-27T06:58:55.676Z,2.11
2022-11-27T07:01:24.236Z,2.17
2022-11-27T07:03:51.258Z,2.17
2022-11-27T07:06:20.788Z,2.24
2022-11-27T07:08:47.752Z,2.22
2022-11-27T07:11:20.009Z,2.27
2022-11-27T07:13:48.145Z,2.31
2022-11-27T07:16:15.680Z,2.33
2022-11-27T07:18:44.977Z,2.41
2022-11-27T07:21:12.409Z,2.22
2022-11-27T07:23:39.354Z,2.44
2022-11-27T07:26:08.477Z,2.40
2022-11-27T07:28:35.732Z,2.37
2022-11-27T07:31:02.548Z,2.22
2022-11-27T07:33:29.122Z,2.19
2022-11-27T07:36:16.453Z,2.30
2022-11-27T07:38:43.667Z,2.37
2022-11-27T07:41:10.536Z,2.47
2022-11-27T07:43:37.355Z,2.54
2022-11-27T07:46:08.207Z,2.54
2022-11-27T07:48:37.671Z,2.55
2022-11-27T07:51:09.074Z,2.55
2022-11-27T07:53:37.576Z,2.63
2022-11-27T07:56:09.908Z,2.68
2022-11-27T07:58:36.888Z,2.60
2022-11-27T08:01:12.184Z,2.53
2022-11-27T08:03:39.524Z,2.52
2022-11-27T08:06:14.710Z,2.62
2022-11-27T08:08:41.591Z,2.63
2022-11-27T08:11:25.124Z,2.66
2022-11-27T08:13:57.239Z,2.59
2022-11-27T08:16:27.312Z,2.64
2022-11-27T08:18:53.975Z,2.78
2022-11-27T08:21:20.562Z,2.97
2022-11-27T08:23:47.325Z,2.99
2022-11-27T08:26:14.705Z,2.89
2022-11-27T08:28:42.218Z,2.88
2022-11-27T08:31:11.423Z,2.99
2022-11-27T08:33:38.340Z,2.84
2022-11-27T08:36:08.186Z,2.99
2022-11-27T08:38:36.427Z,2.99
2022-11-27T08:41:05.003Z,2.95
2022-11-27T08:43:32.211Z,3.01
2022-11-27T08:46:01.624Z,2.91
2022-11-27T08:48:28.441Z,3.06
2022-11-27T08:50:57.442Z,3.09
2022-11-27T08:53:24.060Z,3.19
2022-11-27T08:55:50.611Z,3.14
2022-11-27T08:58:17.147Z,3.21
2022-11-27T09:00:43.845Z,3.25
2022-11-27T09:03:12.383Z,3.19
2022-11-27T09:05:44.675Z,3.29
2022-11-27T09:08:13.552Z,3.31
2022-11-27T09:10:40.148Z,3.42
2022-11-27T09:13:06.663Z,3.41
2022-11-27T09:15:33.354Z,3.39
2022-11-27T09:17:59.927Z,3.51
2022-11-27T09:20:26.538Z,3.57
2022-11-27T09:22:53.082Z,3.61
2022-11-27T09:25:19.721Z,3.48
2022-11-27T09:27:46.304Z,3.53
2022-11-27T09:30:13.449Z,3.43
2022-11-27T09:32:40.042Z,3.54
2022-11-27T09:35:09.413Z,3.55
2022-11-27T09:37:36.041Z,3.67
2022-11-27T09:40:02.679Z,3.65
2022-11-27T09:42:53.578Z,3.72
2022-11-27T09:45:22.373Z,3.61
2022-11-27T09:47:52.888Z,3.72
2022-11-27T09:50:25.839Z,3.55
2022-11-27T09:52:55.045Z,3.62
2022-11-27T09:55:24.877Z,3.50
2022-11-27T09:58:16.292Z,3.85
2022-11-27T10:00:47.645Z,3.78
2022-11-27T10:03:18.672Z,3.80
2022-11-27T10:06:22.232Z,3.93
2022-11-27T10:08:55.741Z,3.84
2022-11-27T10:11:25.160Z,3.68
2022-11-27T10:14:20.976Z,3.90
2022-11-27T10:16:51.334Z,3.91
2022-11-27T10:19:41.761Z,3.94
2022-11-27T10:22:25.402Z,4.07
2022-11-27T10:24:55.303Z,4.06
2022-11-27T10:27:41.161Z,4.15
2022-11-27T10:30:20.954Z,4.06
2022-11-27T10:32:55.992Z,4.16
2022-11-27T10:35:33.101Z,4.18
2022-11-27T10:38:15.094Z,4.15
2022-11-27T10:41:47.708Z,4.20
2022-11-27T10:44:22.064Z,4.31
2022-11-27T10:46:51.160Z,4.23
2022-11-27T10:49:17.766Z,4.31
2022-11-27T10:51:44.394Z,4.28
2022-11-27T10:54:22.225Z,4.31
2022-11-27T10:57:04.111Z,4.20
2022-11-27T10:59:37.525Z,4.40
2022-11-27T11:02:05.737Z,4.33
2022-11-27T11:04:40.198Z,4.40
2022-11-27T11:07:28.330Z,4.56
2022-11-27T11:09:55.300Z,4.61
2022-11-27T11:12:23.776Z,4.64
2022-11-27T11:15:01.708Z,4.57
2022-11-27T11:17:34.785Z,4.48
2022-11-27T11:20:18.892Z,4.69
2022-11-27T11:22:48.643Z,4.70
2022-11-27T11:25:20.081Z,4.67
2022-11-27T11:27:48.332Z,4.50
2022-11-27T11:30:23.018Z,4.65
2022-11-27T11:32:51.264Z,4.80
2022-11-27T11:35:44.344Z,4.66
2022-11-27T11:38:22.090Z,4.60
2022-11-27T11:41:04.735Z,4.63
2022-11-27T11:43:36.334Z,4.72
2022-11-27T11:46:22.837Z,4.91
2022-11-27T11:49:25.033Z,4.80
2022-11-27T11:52:23.634Z,4.81
2022-11-27T11:55:08.949Z,4.86
2022-11-27T11:57:38.530Z,5.00
2022-11-27T12:00:11.652Z,4.96
2022-11-27T12:03:06.297Z,4.94
2022-11-27T12:05:54.574Z,4.82
2022-11-27T12:08:49.152Z,4.93
2022-11-27T12:11:17.025Z,5.06
2022-11-27T12:14:11.433Z,5.17
2022-11-27T12:16:59.053Z,5.17
2022-11-27T12:19:37.886Z,5.05
2022-11-27T12:22:16.765Z,5.11
2022-11-27T12:25:25.185Z,5.20
2022-11-27T12:27:57.670Z,5.13
2022-11-27T12:30:32.820Z,5.24
2022-11-27T12:33:19.280Z,5.17
2022-11-27T12:35:56.455Z,5.28
2022-11-27T12:39:09.634Z,5.25
2022-11-27T12:41:51.270Z,5.41
2022-11-27T12:44:44.573Z,5.41
2022-11-27T12:47:27.016Z,5.45
2022-11-27T12:50:02.945Z,5.30
2022-11-27T12:52:40.746Z,5.22
2022-11-27T12:55:21.424Z,5.28
2022-11-27T12:57:52.872Z,5.25
2022-11-27T13:00:23.214Z,5.26
2022-11-27T13:03:15.064Z,5.20
2022-11-27T13:05:52.645Z,5.29
2022-11-27T13:08:23.324Z,5.23
2022-11-27T13:10:56.902Z,5.37
2022-11-27T13:13:32.698Z,5.31
2022-11-27T13:16:05.581Z,5.34
2022-11-27T13:18:47.086Z,5.43
2022-11-27T13:21:22.997Z,5.31
2022-11-27T13:23:51.097Z,5.26
2022-11-27T13:26:33.349Z,5.24
2022-11-27T13:29:04.105Z,5.31
2022-11-27T13:31:39.265Z,5.33
2022-11-27T13:34:18.417Z,5.32
2022-11-27T13:36:48.378Z,5.31
2022-11-27T13:39:33.515Z,5.43
2022-11-27T13:42:11.002Z,5.25
2022-11-27T13:44:42.718Z,5.17
2022-11-27T13:47:16.473Z,5.21
2022-11-27T13:49:43.532Z,5.19
2022-11-27T13:52:19.101Z,5.21
2022-11-27T13:55:00.489Z,5.21
2022-11-27T13:57:29.616Z,5.21
2022-11-27T14:00:11.603Z,5.22
2022-11-27T14:02:46.892Z,5.24
2022-11-27T14:05:16.733Z,5.27
2022-11-27T14:07:52.426Z,5.27
2022-11-27T14:10:23.384Z,5.18
2022-11-27T14:13:03.531Z,5.24
2022-11-27T14:15:33.232Z,5.28
2022-11-27T14:18:17.069Z,5.30
2022-11-27T14:20:56.751Z,5.34
2022-11-27T14:23:29.407Z,5.38
2022-11-27T14:26:20.666Z,5.29
2022-11-27T14:28:54.370Z,5.26
2022-11-27T14:31:31.571Z,5.20
2022-11-27T14:34:16.888Z,5.14
2022-11-27T14:36:45.328Z,5.04
2022-11-27T14:39:31.229Z,5.15
2022-11-27T14:42:05.538Z,5.16
2022-11-27T14:44:32.950Z,4.96
2022-11-27T14:47:03.450Z,5.11
2022-11-27T14:49:32.090Z,5.12
2022-11-27T14:52:06.940Z,5.13
2022-11-27T14:54:37.612Z,5.06
2022-11-27T14:57:05.524Z,4.96
2022-11-27T14:59:32.405Z,5.05
2022-11-27T15:02:15.437Z,5.08
2022-11-27T15:04:44.292Z,5.08
2022-11-27T15:07:18.342Z,5.02
2022-11-27T15:09:48.845Z,5.17
2022-11-27T15:12:18.838Z,5.00
2022-11-27T15:14:57.629Z,4.99
2022-11-27T15:17:28.462Z,5.01
2022-11-27T15:19:57.457Z,4.97
2022-11-27T15:22:24.458Z,4.87
2022-11-27T15:25:02.016Z,4.82
2022-11-27T15:27:31.759Z,4.88
2022-11-27T15:30:11.787Z,4.94
2022-11-27T15:32:51.387Z,4.85
2022-11-27T15:35:30.048Z,4.93
2022-11-27T15:37:57.830Z,4.97
2022-11-27T15:40:36.423Z,4.84
2022-11-27T15:43:06.530Z,4.88
2022-11-27T15:45:33.330Z,4.85
2022-11-27T15:48:01.315Z,4.81
2022-11-27T15:50:30.653Z,4.73
2022-11-27T15:52:57.761Z,4.84
2022-11-27T15:55:24.414Z,4.97
2022-11-27T15:57:53.464Z,5.00
2022-11-27T16:00:22.108Z,4.96
2022-11-27T16:02:48.587Z,4.86
2022-11-27T16:05:17.447Z,4.78
2022-11-27T16:07:43.923Z,4.78
2022-11-27T16:10:11.099Z,4.73
2022-11-27T16:12:38.927Z,4.80
2022-11-27T16:15:07.674Z,5.00
2022-11-27T16:17:34.546Z,5.09
2022-11-27T16:20:01.039Z,4.93
2022-11-27T16:22:27.560Z,4.97
2022-11-27T16:24:54.017Z,4.98
2022-11-27T16:27:22.756Z,4.83
2022-11-27T16:29:51.908Z,5.00
2022-11-27T16:32:18.379Z,4.88
2022-11-27T16:34:47.136Z,4.97
2022-11-27T16:37:18.259Z,4.98
2022-11-27T16:39:45.304Z,4.87
2022-11-27T16:42:11.801Z,4.80
2022-11-27T16:44:38.332Z,4.70
2022-11-27T16:47:05.220Z,4.78
2022-11-27T16:49:31.733Z,4.70
2022-11-27T16:51:58.326Z,4.66
2022-11-27T16:54:24.789Z,4.54
2022-11-27T16:56:51.881Z,4.56
2022-11-27T16:59:18.328Z,4.67
2022-11-27T17:01:45.274Z,4.65
2022-11-27T17:04:18.311Z,4.69
2022-11-27T17:06:45.755Z,4.64
2022-11-27T17:09:12.855Z,4.61
2022-11-27T17:11:43.185Z,4.65
2022-11-27T17:14:10.592Z,4.61
2022-11-27T17:16:42.593Z,4.53
2022-11-27T17:19:15.856Z,4.55
2022-11-27T17:21:42.394Z,4.49
2022-11-27T17:24:15.484Z,4.43
2022-11-27T17:26:44.046Z,4.32
2022-11-27T17:29:11.965Z,4.17
2022-11-27T17:31:41.761Z,4.17
2022-11-27T17:34:11.949Z,4.00
2022-11-27T17:36:38.997Z,4.10
2022-11-27T17:39:06.379Z,3.98
2022-11-27T17:41:33.460Z,3.92
2022-11-27T17:44:00.430Z,4.03
2022-11-27T17:46:30.693Z,4.07
2022-11-27T17:49:00.158Z,4.17
2022-11-27T17:51:31.727Z,4.26
2022-11-27T17:54:02.734Z,4.24
2022-11-27T17:56:29.539Z,4.19
2022-11-27T17:58:56.024Z,4.15
2022-11-27T18:01:25.690Z,4.25
2022-11-27T18:03:55.649Z,4.19
2022-11-27T18:06:25.462Z,4.21
2022-11-27T18:08:52.332Z,4.09
2022-11-27T18:11:21.594Z,4.05
2022-11-27T18:13:49.617Z,4.28
2022-11-27T18:16:22.937Z,4.31
2022-11-27T18:18:50.036Z,4.09
2022-11-27T18:21:19.379Z,4.22
2022-11-27T18:24:21.316Z,4.26
2022-11-27T18:27:00.543Z,4.11
2022-11-27T18:29:21.888Z,4.17
2022-11-27T18:31:49.959Z,4.15
2022-11-27T18:34:16.545Z,4.26
2022-11-27T18:36:43.139Z,4.19
2022-11-27T18:39:09.698Z,4.28
2022-11-27T18:41:38.981Z,4.30
2022-11-27T18:44:08.543Z,4.35
2022-11-27T18:46:35.244Z,4.31
2022-11-27T18:49:01.967Z,4.19
2022-11-27T18:51:28.553Z,4.10
2022-11-27T18:53:56.599Z,4.27
2022-11-27T18:56:26.044Z,4.25
2022-11-27T18:58:54.033Z,4.26
2022-11-27T19:01:26.425Z,4.33
2022-11-27T19:03:53.369Z,4.37
2022-11-27T19:06:21.915Z,4.30
2022-11-27T19:08:48.704Z,4.30
2022-11-27T19:11:22.757Z,4.29
2022-11-27T19:13:51.117Z,4.21
2022-11-27T19:16:20.632Z,4.11
2022-11-27T19:18:47.615Z,4.28
2022-11-27T19:21:17.563Z,4.26
2022-11-27T19:23:44.609Z,4.35
2022-11-27T19:26:16.254Z,4.41
2022-11-27T19:28:43.518Z,4.34
2022-11-27T19:31:13.138Z,4.37
2022-11-27T19:33:40.118Z,4.24
2022-11-27T19:36:12.550Z,4.25
2022-11-27T19:38:44.940Z,4.33
2022-11-27T19:41:14.048Z,4.30
2022-11-27T19:43:40.884Z,4.28
2022-11-27T19:46:34.808Z,4.23
2022-11-27T19:49:06.615Z,4.30
2022-11-27T19:51:37.816Z,4.26
2022-11-27T19:54:10.582Z,4.35
2022-11-27T19:56:39.745Z,4.30
2022-11-27T19:59:09.460Z,4.20
2022-11-27T20:01:38.017Z,4.09
2022-11-27T20:04:07.916Z,4.06
2022-11-27T20:06:37.150Z,3.95
2022-11-27T20:09:05.314Z,3.96
2022-11-27T20:11:35.656Z,4.06
2022-11-27T20:14:04.289Z,4.10
2022-11-27T20:16:32.148Z,4.07
2022-11-27T20:18:58.782Z,3.95
2022-11-27T20:21:26.049Z,4.00
2022-11-27T20:23:54.239Z,4.01
2022-11-27T20:26:23.592Z,4.09
2022-11-27T20:28:53.826Z,4.19
2022-11-27T20:31:24.234Z,4.04
2022-11-27T20:33:55.969Z,4.08
2022-11-27T20:36:24.104Z,4.01
2022-11-27T20:38:51.166Z,4.08
2022-11-27T20:41:20.278Z,3.99
2022-11-27T20:43:47.380Z,3.96
2022-11-27T20:46:15.579Z,3.98
2022-11-27T20:48:45.305Z,4.01
2022-11-27T20:51:16.786Z,4.13
2022-11-27T20:53:48.550Z,4.07
2022-11-27T20:56:16.752Z,4.10
2022-11-27T20:58:50.724Z,4.10
2022-11-27T21:01:29.649Z,4.15
2022-11-27T21:03:58.064Z,4.04
2022-11-27T21:06:28.293Z,3.93
2022-11-27T21:08:55.515Z,3.98
2022-11-27T21:11:26.984Z,3.94
2022-11-27T21:14:01.890Z,3.83
2022-11-27T21:16:34.226Z,4.00
2022-11-27T21:19:06.216Z,3.90
2022-11-27T21:21:33.366Z,4.10
2022-11-27T21:24:00.353Z,4.18
2022-11-27T21:26:27.168Z,4.18
2022-11-27T21:28:53.658Z,4.07
2022-11-27T21:31:23.604Z,4.09
2022-11-27T21:33:55.893Z,3.96
2022-11-27T21:36:25.648Z,4.01
2022-11-27T21:38:54.365Z,4.02
2022-11-27T21:41:24.212Z,3.93
2022-11-27T21:43:55.186Z,3.96
2022-11-27T21:46:25.004Z,4.14
2022-11-27T21:48:55.619Z,4.09
2022-11-27T21:51:23.037Z,4.05
2022-11-27T21:53:51.433Z,3.98
2022-11-27T21:56:20.072Z,4.00
2022-11-27T21:58:46.967Z,3.92
2022-11-27T22:01:18.259Z,3.97
2022-11-27T22:03:47.589Z,3.97
2022-11-27T22:06:17.809Z,3.94
2022-11-27T22:08:46.437Z,3.90
2022-11-27T22:11:21.867Z,3.85
2022-11-27T22:13:48.619Z,3.77
2022-11-27T22:16:20.460Z,3.97
2022-11-27T22:18:48.242Z,3.91
2022-11-27T22:21:15.986Z,3.87
2022-11-27T22:23:43.587Z,3.86
2022-11-27T22:26:15.735Z,3.89
2022-11-27T22:28:42.931Z,3.96
2022-11-27T22:31:13.013Z,3.96
2022-11-27T22:33:41.217Z,3.97
2022-11-27T22:36:20.929Z,3.83
2022-11-27T22:38:51.653Z,3.93
2022-11-27T22:41:20.207Z,3.90
2022-11-27T22:43:46.741Z,3.94
2022-11-27T22:46:29.384Z,3.89
2022-11-27T22:48:58.220Z,3.96
2022-11-27T22:51:26.452Z,3.86
2022-11-27T22:53:53.163Z,3.91
2022-11-27T22:56:19.856Z,3.85
2022-11-27T22:58:46.395Z,3.97
2022-11-27T23:01:19.425Z,3.92
2022-11-27T23:03:46.070Z,3.91
2022-11-27T23:06:16.679Z,3.79
2022-11-27T23:08:47.398Z,4.00
2022-11-27T23:11:22.279Z,3.88
2022-11-27T23:13:51.452Z,3.84
2022-11-27T23:16:18.872Z,3.87
2022-11-27T23:18:46.232Z,4.07
2022-11-27T23:21:18.175Z,3.89
2022-11-27T23:23:45.504Z,3.78
2022-11-27T23:26:18.168Z,3.79
2022-11-27T23:28:51.286Z,3.84
2022-11-27T23:31:30.429Z,3.89
2022-11-27T23:33:59.269Z,3.96
2022-11-27T23:36:25.890Z,3.97
2022-11-27T23:38:52.416Z,3.95
2022-11-27T23:41:25.324Z,4.07
2022-11-27T23:43:53.446Z,4.07
2022-11-27T23:46:26.122Z,4.19
2022-11-27T23:48:54.764Z,4.23
2022-11-27T23:51:24.586Z,4.22
2022-11-27T23:53:51.514Z,4.09
2022-11-27T23:56:21.297Z,3.93
2022-11-27T23:58:48.032Z,4.02
